createdAt,value
2018-03-31T00:00:51.318Z,3.43
2018-03-31T00:02:53.414Z,3.07
2018-03-31T00:04:56.271Z,4.00
2018-03-31T00:06:58.341Z,3.10
2018-03-31T00:09:00.398Z,2.43
2018-03-31T00:11:02.503Z,2.27
2018-03-31T00:13:04.572Z,2.67
2018-03-31T00:15:07.428Z,4.70
2018-03-31T00:17:10.284Z,5.37
2018-03-31T00:19:12.365Z,4.23
2018-03-31T00:21:15.208Z,4.00
2018-03-31T00:23:17.276Z,4.30
2018-03-31T00:25:19.401Z,3.23
2018-03-31T00:27:21.450Z,3.60
2018-03-31T00:29:23.521Z,7.23
2018-03-31T00:31:25.606Z,6.33
2018-03-31T00:33:27.698Z,6.63
2018-03-31T00:35:29.842Z,6.63
2018-03-31T00:37:31.954Z,6.90
2018-03-31T00:39:34.019Z,7.90
2018-03-31T00:41:36.144Z,4.30
2018-03-31T00:43:38.197Z,4.33
2018-03-31T00:45:40.251Z,4.67
2018-03-31T00:47:42.330Z,3.87
2018-03-31T00:49:44.391Z,3.23
2018-03-31T00:51:46.574Z,3.53
2018-03-31T00:53:49.397Z,1.80
2018-03-31T00:55:51.497Z,1.73
2018-03-31T00:57:53.913Z,4.37
2018-03-31T00:59:55.969Z,2.43
2018-03-31T01:01:58.037Z,1.63
2018-03-31T01:04:00.096Z,1.70
2018-03-31T01:06:02.176Z,1.60
2018-03-31T01:08:04.250Z,1.50
2018-03-31T01:10:06.308Z,1.60
2018-03-31T01:12:08.394Z,1.40
2018-03-31T01:14:10.470Z,3.37
2018-03-31T01:16:12.537Z,2.93
2018-03-31T01:18:14.614Z,3.10
2018-03-31T01:20:17.445Z,1.33
2018-03-31T01:22:19.512Z,1.30
2018-03-31T01:24:21.590Z,1.53
2018-03-31T01:26:24.410Z,1.77
2018-03-31T01:28:26.473Z,1.37
2018-03-31T01:30:28.547Z,1.40
2018-03-31T01:32:30.674Z,1.40
2018-03-31T01:34:33.538Z,1.50
2018-03-31T01:36:35.669Z,1.83
2018-03-31T01:38:37.724Z,1.20
2018-03-31T01:40:39.802Z,1.57
2018-03-31T01:42:41.857Z,1.63
2018-03-31T01:44:44.017Z,1.20
2018-03-31T01:46:46.070Z,1.30
2018-03-31T01:48:48.113Z,2.00
2018-03-31T01:50:50.208Z,1.43
2018-03-31T01:52:52.272Z,1.40
2018-03-31T01:54:55.091Z,1.40
2018-03-31T01:56:57.932Z,1.23
2018-03-31T01:59:00.759Z,2.07
2018-03-31T02:01:02.841Z,1.23
2018-03-31T02:03:04.906Z,2.17
2018-03-31T02:05:06.964Z,1.67
2018-03-31T02:07:09.040Z,1.20
2018-03-31T02:09:11.095Z,1.63
2018-03-31T02:11:13.181Z,1.30
2018-03-31T02:13:15.265Z,1.27
2018-03-31T02:15:17.334Z,2.03
2018-03-31T02:17:19.505Z,2.10
2018-03-31T02:19:22.353Z,1.57
2018-03-31T02:21:25.192Z,1.53
2018-03-31T02:23:27.316Z,1.50
2018-03-31T02:25:29.381Z,2.00
2018-03-31T02:27:31.461Z,2.00
2018-03-31T02:29:34.274Z,2.13
2018-03-31T02:31:36.326Z,1.70
2018-03-31T02:33:38.403Z,1.77
2018-03-31T02:35:40.678Z,1.90
2018-03-31T02:37:42.749Z,2.10
2018-03-31T02:39:47.226Z,2.17
2018-03-31T02:41:49.505Z,2.10
2018-03-31T02:43:52.793Z,2.73
2018-03-31T02:45:55.082Z,2.30
2018-03-31T02:47:57.918Z,2.70
2018-03-31T02:50:01.389Z,2.23
2018-03-31T02:52:05.612Z,2.77
2018-03-31T02:54:08.449Z,3.90
2018-03-31T02:56:10.527Z,2.67
2018-03-31T02:58:13.351Z,2.67
2018-03-31T03:00:17.678Z,2.83
2018-03-31T03:02:19.734Z,2.87
2018-03-31T03:04:22.322Z,3.23
2018-03-31T03:06:24.844Z,2.93
2018-03-31T03:08:27.243Z,3.37
2018-03-31T03:10:30.085Z,3.63
2018-03-31T03:12:33.078Z,3.33
2018-03-31T03:14:35.963Z,3.73
2018-03-31T03:16:38.997Z,3.10
2018-03-31T03:18:41.621Z,3.50
2018-03-31T03:20:46.790Z,3.33
2018-03-31T03:22:49.072Z,3.27
2018-03-31T03:24:51.738Z,3.30
2018-03-31T03:26:53.830Z,3.70
2018-03-31T03:28:57.086Z,3.50
2018-03-31T03:30:59.198Z,3.70
2018-03-31T03:33:07.460Z,6.63
2018-03-31T03:35:10.046Z,4.90
2018-03-31T03:37:12.412Z,4.43
2018-03-31T03:39:14.489Z,4.23
2018-03-31T03:41:17.057Z,4.50
2018-03-31T03:43:20.316Z,4.80
2018-03-31T03:45:22.395Z,4.57
2018-03-31T03:47:24.768Z,4.90
2018-03-31T03:49:26.855Z,4.17
2018-03-31T03:51:28.917Z,6.77
2018-03-31T03:53:31.028Z,5.23
2018-03-31T03:55:33.914Z,5.10
2018-03-31T03:57:36.736Z,6.57
2018-03-31T03:59:38.803Z,5.27
2018-03-31T04:01:40.868Z,5.50
2018-03-31T04:03:42.956Z,5.37
2018-03-31T04:05:45.034Z,5.23
2018-03-31T04:07:47.890Z,5.23
2018-03-31T04:09:53.046Z,5.30
2018-03-31T04:11:55.943Z,5.77
2018-03-31T04:13:58.781Z,6.13
2018-03-31T04:18:09.201Z,5.97
2018-03-31T04:20:11.326Z,6.67
2018-03-31T04:22:14.149Z,7.50
2018-03-31T04:24:16.204Z,7.97
2018-03-31T04:26:18.278Z,8.97
2018-03-31T04:28:20.334Z,7.87
2018-03-31T04:30:23.185Z,7.90
2018-03-31T04:32:26.086Z,7.80
2018-03-31T04:34:28.147Z,8.77
2018-03-31T04:36:30.242Z,8.23
2018-03-31T04:38:32.300Z,11.67
2018-03-31T04:40:34.424Z,8.90
2018-03-31T04:42:37.364Z,8.37
2018-03-31T04:44:39.434Z,8.87
2018-03-31T04:46:42.055Z,8.50
2018-03-31T04:48:44.121Z,10.30
2018-03-31T04:50:47.321Z,9.23
2018-03-31T04:52:49.429Z,9.03
2018-03-31T04:54:53.219Z,10.27
2018-03-31T04:56:55.290Z,9.70
2018-03-31T04:58:57.374Z,9.20
2018-03-31T05:01:00.209Z,8.17
2018-03-31T05:03:02.293Z,8.10
2018-03-31T05:05:04.462Z,8.67
2018-03-31T05:07:06.520Z,7.80
2018-03-31T05:09:08.603Z,7.63
2018-03-31T05:11:11.439Z,8.27
2018-03-31T05:13:13.509Z,8.27
2018-03-31T05:15:15.565Z,8.47
2018-03-31T05:17:17.641Z,8.53
2018-03-31T05:19:19.715Z,8.37
2018-03-31T05:21:21.787Z,7.73
2018-03-31T05:23:23.969Z,8.70
2018-03-31T05:25:26.048Z,7.67
2018-03-31T05:27:28.098Z,8.10
2018-03-31T05:29:30.949Z,8.20
2018-03-31T05:31:33.772Z,8.13
2018-03-31T05:33:35.830Z,9.60
2018-03-31T05:35:38.140Z,8.43
2018-03-31T05:37:40.243Z,7.40
2018-03-31T05:39:42.334Z,8.40
2018-03-31T05:41:44.393Z,7.77
2018-03-31T05:43:46.763Z,9.27
2018-03-31T05:45:48.863Z,8.87
2018-03-31T05:47:50.972Z,7.53
2018-03-31T05:49:53.031Z,7.80
2018-03-31T05:51:55.129Z,8.10
2018-03-31T05:53:57.196Z,7.87
2018-03-31T05:55:59.280Z,8.50
2018-03-31T05:58:01.387Z,8.30
2018-03-31T06:00:03.465Z,8.43
2018-03-31T06:02:05.542Z,9.27
2018-03-31T06:04:07.617Z,7.40
2018-03-31T06:06:09.779Z,9.33
2018-03-31T06:08:11.862Z,9.70
2018-03-31T06:10:14.697Z,8.20
2018-03-31T06:12:17.291Z,8.57
2018-03-31T06:14:19.366Z,8.50
2018-03-31T06:16:21.453Z,10.23
2018-03-31T06:18:24.278Z,8.87
2018-03-31T06:20:27.096Z,8.70
2018-03-31T06:22:29.956Z,8.47
2018-03-31T06:24:32.053Z,8.87
2018-03-31T06:26:34.895Z,9.47
2018-03-31T06:28:36.956Z,8.33
2018-03-31T06:30:39.148Z,8.30
2018-03-31T06:32:41.214Z,9.70
2018-03-31T06:34:44.071Z,10.40
2018-03-31T06:36:46.177Z,8.67
2018-03-31T06:38:48.252Z,10.27
2018-03-31T06:40:50.323Z,13.97
2018-03-31T06:42:52.397Z,11.57
2018-03-31T06:44:54.460Z,10.60
2018-03-31T06:46:56.549Z,10.73
2018-03-31T06:48:58.678Z,9.00
2018-03-31T06:51:00.739Z,14.57
2018-03-31T06:53:02.811Z,9.47
2018-03-31T06:55:04.898Z,9.20
2018-03-31T06:57:06.998Z,10.37
2018-03-31T06:59:09.056Z,15.87
2018-03-31T07:01:11.109Z,11.80
2018-03-31T07:03:13.239Z,12.20
2018-03-31T07:05:15.305Z,9.30
2018-03-31T07:07:17.365Z,9.93
2018-03-31T07:09:20.227Z,9.87
2018-03-31T07:11:23.057Z,9.83
2018-03-31T07:13:25.886Z,10.70
2018-03-31T07:15:27.956Z,11.13
2018-03-31T07:17:30.023Z,11.47
2018-03-31T07:19:32.120Z,11.20
2018-03-31T07:21:34.942Z,10.70
2018-03-31T07:23:37.013Z,9.50
2018-03-31T07:25:39.874Z,10.20
2018-03-31T07:27:41.934Z,8.80
2018-03-31T07:29:43.986Z,8.40
2018-03-31T07:31:46.066Z,8.30
2018-03-31T07:33:48.153Z,8.10
2018-03-31T07:35:50.214Z,8.97
2018-03-31T07:37:52.273Z,7.60
2018-03-31T07:39:54.347Z,7.43
2018-03-31T07:41:57.194Z,7.97
2018-03-31T07:43:59.274Z,7.30
2018-03-31T07:46:01.356Z,8.17
2018-03-31T07:48:03.415Z,8.27
2018-03-31T07:50:05.504Z,11.27
2018-03-31T07:52:08.334Z,8.63
2018-03-31T07:54:10.404Z,8.63
2018-03-31T07:56:12.534Z,6.93
2018-03-31T07:58:14.602Z,5.83
2018-03-31T08:00:16.657Z,7.17
2018-03-31T08:02:18.950Z,6.83
2018-03-31T08:04:21.801Z,7.07
2018-03-31T08:06:23.870Z,7.27
2018-03-31T08:08:25.978Z,5.63
2018-03-31T08:10:28.045Z,6.33
2018-03-31T08:12:30.130Z,6.90
2018-03-31T08:14:32.205Z,6.97
2018-03-31T08:16:35.049Z,10.67
2018-03-31T08:18:37.130Z,6.90
2018-03-31T08:20:39.258Z,7.20
2018-03-31T08:22:41.324Z,7.20
2018-03-31T08:24:44.464Z,5.33
2018-03-31T08:26:46.542Z,5.20
2018-03-31T08:28:48.654Z,5.60
2018-03-31T08:30:51.523Z,6.73
2018-03-31T08:32:53.593Z,6.00
2018-03-31T08:34:56.426Z,5.87
2018-03-31T08:36:58.613Z,5.93
2018-03-31T08:39:00.727Z,5.70
2018-03-31T08:41:02.825Z,5.70
2018-03-31T08:43:04.921Z,6.37
2018-03-31T08:45:06.980Z,7.80
2018-03-31T08:47:09.872Z,6.23
2018-03-31T08:49:12.066Z,8.23
2018-03-31T08:51:14.147Z,5.83
2018-03-31T08:53:16.231Z,5.93
2018-03-31T08:55:18.326Z,6.57
2018-03-31T08:57:21.169Z,5.40
2018-03-31T08:59:23.280Z,4.60
2018-03-31T09:01:25.462Z,5.03
2018-03-31T09:03:27.546Z,4.97
2018-03-31T09:05:29.613Z,5.17
2018-03-31T09:07:31.738Z,4.73
2018-03-31T09:09:33.810Z,4.43
2018-03-31T09:11:35.895Z,4.40
2018-03-31T09:13:37.969Z,4.20
2018-03-31T09:15:40.146Z,5.10
2018-03-31T09:17:43.034Z,4.80
2018-03-31T09:19:45.106Z,6.43
2018-03-31T09:21:47.931Z,6.73
2018-03-31T09:23:50.036Z,4.77
2018-03-31T09:25:52.125Z,5.00
2018-03-31T09:27:54.186Z,4.40
2018-03-31T09:29:56.282Z,7.07
2018-03-31T09:31:58.340Z,5.17
2018-03-31T09:34:00.408Z,4.73
2018-03-31T09:36:02.511Z,4.73
2018-03-31T09:38:04.574Z,4.57
2018-03-31T09:40:06.709Z,7.13
2018-03-31T09:42:08.791Z,5.13
2018-03-31T09:44:10.846Z,4.87
2018-03-31T09:46:12.949Z,4.37
2018-03-31T09:48:15.014Z,4.13
2018-03-31T09:50:17.833Z,3.80
2018-03-31T09:52:19.918Z,4.27
2018-03-31T09:54:21.988Z,4.37
2018-03-31T09:56:24.078Z,6.10
2018-03-31T09:58:26.146Z,4.67
2018-03-31T10:00:33.933Z,4.20
2018-03-31T10:02:35.997Z,4.40
2018-03-31T10:04:38.062Z,5.10
2018-03-31T10:06:40.190Z,5.27
2018-03-31T10:08:42.270Z,4.03
2018-03-31T10:10:45.211Z,4.00
2018-03-31T10:12:47.289Z,3.70
2018-03-31T10:14:49.348Z,4.60
2018-03-31T10:16:51.413Z,4.00
2018-03-31T10:18:53.485Z,4.67
2018-03-31T10:20:55.549Z,4.83
2018-03-31T10:22:57.645Z,5.77
2018-03-31T10:24:59.744Z,3.83
2018-03-31T10:27:01.818Z,6.00
2018-03-31T10:29:04.657Z,5.33
2018-03-31T10:31:06.746Z,5.00
2018-03-31T10:33:08.813Z,4.27
2018-03-31T10:35:10.995Z,4.50
2018-03-31T10:37:13.321Z,5.57
2018-03-31T10:39:15.458Z,5.47
2018-03-31T10:41:17.530Z,4.33
2018-03-31T10:43:19.585Z,5.43
2018-03-31T10:45:21.687Z,3.90
2018-03-31T10:47:23.765Z,5.07
2018-03-31T10:49:25.872Z,4.13
2018-03-31T10:51:27.994Z,3.30
2018-03-31T10:53:30.106Z,3.30
2018-03-31T10:55:32.190Z,2.80
2018-03-31T10:57:34.288Z,3.83
2018-03-31T10:59:37.133Z,5.53
2018-03-31T11:01:39.969Z,3.77
2018-03-31T11:03:42.821Z,3.13
2018-03-31T11:05:44.899Z,3.53
2018-03-31T11:07:47.753Z,3.93
2018-03-31T11:09:49.818Z,4.00
2018-03-31T11:11:51.892Z,4.07
2018-03-31T11:13:53.949Z,5.60
2018-03-31T11:15:56.054Z,3.33
2018-03-31T11:17:58.116Z,3.57
2018-03-31T11:20:00.182Z,3.60
2018-03-31T11:22:02.275Z,3.53
2018-03-31T11:24:04.351Z,3.60
2018-03-31T11:26:06.410Z,3.77
2018-03-31T11:28:09.274Z,3.93
2018-03-31T11:30:11.381Z,7.10
2018-03-31T11:32:14.234Z,4.37
2018-03-31T11:34:16.348Z,5.50
2018-03-31T11:36:18.430Z,5.73
2018-03-31T11:38:20.499Z,4.40
2018-03-31T11:40:22.662Z,3.50
2018-03-31T11:42:24.857Z,4.83
2018-03-31T11:44:26.894Z,4.43
2018-03-31T11:46:28.969Z,3.63
2018-03-31T11:48:31.794Z,4.20
2018-03-31T11:50:34.641Z,5.70
2018-03-31T11:52:36.705Z,3.90
2018-03-31T11:54:38.832Z,4.33
2018-03-31T11:56:40.906Z,3.70
2018-03-31T11:58:43.069Z,3.97
2018-03-31T12:00:45.161Z,3.97
2018-03-31T12:02:47.224Z,3.73
2018-03-31T12:04:49.305Z,3.77
2018-03-31T12:06:52.154Z,3.47
2018-03-31T12:08:54.239Z,3.70
2018-03-31T12:10:57.082Z,3.43
2018-03-31T12:12:59.146Z,4.53
2018-03-31T12:15:01.214Z,7.00
2018-03-31T12:17:03.310Z,4.63
2018-03-31T12:19:06.145Z,6.80
2018-03-31T12:21:08.219Z,4.70
2018-03-31T12:23:10.318Z,5.20
2018-03-31T12:25:13.153Z,5.47
2018-03-31T12:27:15.346Z,5.40
2018-03-31T12:29:18.213Z,5.37
2018-03-31T12:31:20.284Z,4.13
2018-03-31T12:33:22.375Z,4.03
2018-03-31T12:35:24.444Z,3.83
2018-03-31T12:37:26.554Z,8.10
2018-03-31T12:39:28.630Z,3.47
2018-03-31T12:41:30.747Z,3.23
2018-03-31T12:43:32.873Z,3.27
2018-03-31T12:45:35.707Z,3.53
2018-03-31T12:47:37.771Z,4.13
2018-03-31T12:49:40.645Z,2.97
2018-03-31T12:51:42.703Z,2.90
2018-03-31T12:53:44.784Z,2.90
2018-03-31T12:55:46.869Z,3.00
2018-03-31T12:57:48.941Z,4.03
2018-03-31T12:59:51.779Z,3.00
2018-03-31T13:01:53.836Z,3.03
2018-03-31T13:03:55.997Z,3.97
2018-03-31T13:05:58.069Z,7.00
2018-03-31T13:08:00.145Z,4.27
2018-03-31T13:10:02.272Z,2.60
2018-03-31T13:12:04.334Z,6.20
2018-03-31T13:14:06.420Z,2.90
2018-03-31T13:16:08.505Z,4.10
2018-03-31T13:18:10.584Z,3.30
2018-03-31T13:20:13.449Z,5.70
2018-03-31T13:22:16.276Z,5.93
2018-03-31T13:24:18.380Z,6.03
2018-03-31T13:26:20.462Z,4.33
2018-03-31T13:28:23.288Z,4.53
2018-03-31T13:30:25.371Z,6.10
2018-03-31T13:32:27.433Z,10.37
2018-03-31T13:34:29.507Z,2.90
2018-03-31T13:36:31.593Z,9.40
2018-03-31T13:38:34.461Z,12.50
2018-03-31T13:40:36.574Z,7.63
2018-03-31T13:42:38.642Z,5.03
2018-03-31T13:44:40.732Z,4.53
2018-03-31T13:46:42.925Z,2.93
2018-03-31T13:48:45.823Z,5.63
2018-03-31T13:50:47.926Z,4.43
2018-03-31T13:52:50.022Z,3.90
2018-03-31T13:54:52.090Z,3.57
2018-03-31T13:56:54.939Z,4.17
2018-03-31T13:58:57.028Z,3.43
2018-03-31T14:00:59.863Z,4.07
2018-03-31T14:03:02.139Z,3.37
2018-03-31T14:05:04.256Z,4.37
2018-03-31T14:07:06.317Z,3.90
2018-03-31T14:09:08.407Z,3.13
2018-03-31T14:11:10.441Z,3.30
2018-03-31T14:13:13.309Z,3.27
2018-03-31T14:15:16.155Z,3.03
2018-03-31T14:17:18.392Z,3.20
2018-03-31T14:19:20.465Z,4.93
2018-03-31T14:21:22.546Z,3.20
2018-03-31T14:23:24.614Z,3.07
2018-03-31T14:25:26.714Z,4.67
2018-03-31T14:27:29.556Z,4.70
2018-03-31T14:29:33.148Z,4.67
2018-03-31T14:31:35.230Z,4.40
2018-03-31T14:33:37.309Z,3.67
2018-03-31T14:35:40.165Z,6.90
2018-03-31T14:37:43.031Z,8.93
2018-03-31T14:39:45.121Z,3.13
2018-03-31T14:41:47.976Z,2.93
2018-03-31T14:43:50.073Z,3.50
2018-03-31T14:45:52.925Z,2.97
2018-03-31T14:47:55.021Z,2.60
2018-03-31T14:49:57.862Z,3.50
2018-03-31T14:51:59.977Z,6.90
2018-03-31T14:54:02.041Z,2.70
2018-03-31T14:56:04.115Z,6.47
2018-03-31T14:58:06.204Z,3.83
2018-03-31T15:00:08.342Z,2.60
2018-03-31T15:02:10.415Z,3.03
2018-03-31T15:04:12.478Z,19.30
2018-03-31T15:06:14.561Z,4.07
2018-03-31T15:08:16.630Z,2.87
2018-03-31T15:10:18.675Z,3.33
2018-03-31T15:12:20.778Z,3.00
2018-03-31T15:14:23.618Z,3.47
2018-03-31T15:16:26.474Z,2.70
2018-03-31T15:18:28.566Z,3.03
2018-03-31T15:20:30.642Z,3.50
2018-03-31T15:22:32.769Z,2.90
2018-03-31T15:24:35.561Z,3.97
2018-03-31T15:26:38.388Z,3.03
2018-03-31T15:28:41.250Z,5.73
2018-03-31T15:30:44.118Z,2.57
2018-03-31T15:32:46.190Z,2.43
2018-03-31T15:34:48.330Z,2.00
2018-03-31T15:36:50.353Z,2.07
2018-03-31T15:38:52.469Z,2.03
2018-03-31T15:40:54.550Z,2.20
2018-03-31T15:42:57.387Z,2.40
2018-03-31T15:45:00.399Z,2.27
2018-03-31T15:47:02.489Z,2.83
2018-03-31T15:49:05.334Z,2.60
2018-03-31T15:51:07.433Z,3.40
2018-03-31T15:53:10.259Z,3.87
2018-03-31T15:55:12.360Z,3.97
2018-03-31T15:57:15.185Z,3.83
2018-03-31T15:59:17.251Z,4.00
2018-03-31T16:01:19.342Z,3.60
2018-03-31T16:03:21.398Z,5.50
2018-03-31T16:05:24.301Z,5.53
2018-03-31T16:07:27.141Z,11.83
2018-03-31T16:09:30.170Z,5.60
2018-03-31T16:11:33.052Z,3.73
2018-03-31T16:13:35.893Z,3.70
2018-03-31T16:15:37.970Z,3.23
2018-03-31T16:17:40.049Z,9.73
2018-03-31T16:19:42.895Z,6.73
2018-03-31T16:21:44.958Z,8.63
2018-03-31T16:23:47.131Z,16.07
2018-03-31T16:25:49.243Z,3.53
2018-03-31T16:27:51.336Z,4.50
2018-03-31T16:29:53.410Z,4.93
2018-03-31T16:31:55.513Z,3.03
2018-03-31T16:33:58.353Z,5.00
2018-03-31T16:36:00.422Z,3.57
2018-03-31T16:38:03.268Z,18.67
2018-03-31T16:40:06.110Z,5.00
2018-03-31T16:42:08.958Z,7.33
2018-03-31T16:44:11.022Z,5.50
2018-03-31T16:46:13.095Z,8.03
2018-03-31T16:48:15.197Z,5.37
2018-03-31T16:50:17.277Z,2.90
2018-03-31T16:52:19.345Z,4.73
2018-03-31T16:54:21.450Z,3.50
2018-03-31T16:56:24.296Z,3.50
2018-03-31T16:58:26.401Z,4.73
2018-03-31T17:00:29.250Z,6.20
2018-03-31T17:02:31.358Z,4.20
2018-03-31T17:04:34.471Z,4.93
2018-03-31T17:06:37.322Z,3.13
2018-03-31T17:08:40.154Z,3.90
2018-03-31T17:10:44.293Z,3.10
2018-03-31T17:12:46.359Z,10.80
2018-03-31T17:14:48.429Z,2.90
2018-03-31T17:16:51.280Z,3.07
2018-03-31T17:18:53.347Z,5.17
2018-03-31T17:20:55.443Z,2.90
2018-03-31T17:22:58.569Z,2.47
2018-03-31T17:25:01.360Z,5.53
2018-03-31T17:27:03.449Z,3.33
2018-03-31T17:29:05.527Z,3.57
2018-03-31T17:31:08.388Z,3.87
2018-03-31T17:33:10.445Z,4.10
2018-03-31T17:35:12.519Z,5.80
2018-03-31T17:37:14.606Z,6.20
2018-03-31T17:39:16.663Z,2.83
2018-03-31T17:41:18.718Z,2.87
2018-03-31T17:43:21.590Z,6.27
2018-03-31T17:45:24.429Z,3.53
2018-03-31T17:47:26.489Z,6.37
2018-03-31T17:49:28.569Z,3.73
2018-03-31T17:51:30.635Z,3.53
2018-03-31T17:53:32.719Z,4.90
2018-03-31T17:55:35.547Z,4.77
2018-03-31T17:57:37.730Z,5.60
2018-03-31T17:59:40.575Z,3.17
2018-03-31T18:01:42.661Z,3.33
2018-03-31T18:03:44.750Z,3.20
2018-03-31T18:05:46.816Z,5.07
2018-03-31T18:07:48.918Z,4.43
2018-03-31T18:09:51.049Z,5.07
2018-03-31T18:11:53.950Z,2.70
2018-03-31T18:13:56.810Z,2.77
2018-03-31T18:15:59.642Z,4.07
2018-03-31T18:18:01.732Z,5.90
2018-03-31T18:20:04.627Z,3.40
2018-03-31T18:22:06.725Z,2.33
2018-03-31T18:24:09.573Z,5.10
2018-03-31T18:26:11.732Z,4.90
2018-03-31T18:28:13.888Z,6.27
2018-03-31T18:30:15.973Z,7.17
2018-03-31T18:32:18.884Z,6.07
2018-03-31T18:34:20.967Z,6.47
2018-03-31T18:36:23.074Z,2.73
2018-03-31T18:38:25.933Z,5.53
2018-03-31T18:40:28.012Z,4.23
2018-03-31T18:42:30.129Z,3.97
2018-03-31T18:44:32.214Z,2.10
2018-03-31T18:46:34.309Z,4.30
2018-03-31T18:48:37.148Z,3.40
2018-03-31T18:50:39.239Z,3.27
2018-03-31T18:52:41.321Z,2.77
2018-03-31T18:54:44.173Z,2.80
2018-03-31T18:56:46.247Z,2.30
2018-03-31T18:58:48.330Z,3.50
2018-03-31T19:00:50.394Z,4.90
2018-03-31T19:02:52.611Z,5.70
2018-03-31T19:04:54.691Z,6.50
2018-03-31T19:06:56.763Z,6.27
2018-03-31T19:08:59.618Z,4.40
2018-03-31T19:11:01.701Z,5.03
2018-03-31T19:13:03.783Z,5.47
2018-03-31T19:15:06.651Z,7.20
2018-03-31T19:17:15.131Z,10.63
2018-03-31T19:19:17.294Z,8.13
2018-03-31T19:21:20.167Z,16.17
2018-03-31T19:23:22.228Z,15.03
2018-03-31T19:25:29.973Z,16.80
2018-03-31T19:27:32.835Z,13.80
2018-03-31T19:29:34.985Z,17.00
2018-03-31T19:31:37.070Z,12.73
2018-03-31T19:33:39.920Z,11.33
2018-03-31T19:35:47.570Z,12.10
2018-03-31T19:37:49.685Z,14.87
2018-03-31T19:39:51.828Z,12.47
2018-03-31T19:41:53.935Z,7.97
2018-03-31T19:43:56.795Z,10.90
2018-03-31T19:45:59.748Z,11.77
2018-03-31T19:48:01.984Z,6.53
2018-03-31T19:50:04.062Z,7.33
2018-03-31T19:52:06.157Z,4.70
2018-03-31T19:54:09.001Z,5.73
2018-03-31T19:56:11.259Z,5.83
2018-03-31T19:58:13.354Z,3.90
2018-03-31T20:00:15.459Z,5.70
2018-03-31T20:02:18.375Z,8.57
2018-03-31T20:04:20.502Z,10.50
2018-03-31T20:06:23.363Z,13.37
2018-03-31T20:08:25.526Z,10.23
2018-03-31T20:10:27.670Z,8.93
2018-03-31T20:12:29.936Z,8.67
2018-03-31T20:16:45.805Z,10.17
2018-03-31T20:18:48.048Z,9.07
2018-03-31T20:20:50.204Z,7.63
2018-03-31T20:22:53.282Z,5.33
2018-03-31T20:24:56.148Z,4.40
2018-03-31T20:26:58.252Z,3.87
2018-03-31T20:29:00.363Z,7.00
2018-03-31T20:31:02.448Z,4.07
2018-03-31T20:33:04.569Z,2.83
2018-03-31T20:35:06.648Z,3.63
2018-03-31T20:37:08.721Z,2.10
2018-03-31T20:39:10.823Z,2.17
2018-03-31T20:41:12.918Z,3.50
2018-03-31T20:43:15.001Z,2.27
2018-03-31T20:45:17.129Z,2.90
2018-03-31T20:47:19.203Z,2.93
2018-03-31T20:49:21.278Z,2.07
2018-03-31T20:51:23.385Z,1.97
2018-03-31T20:53:26.257Z,3.47
2018-03-31T20:55:29.129Z,7.43
2018-03-31T20:57:31.239Z,3.20
2018-03-31T20:59:33.343Z,4.10
2018-03-31T21:01:35.449Z,3.30
2018-03-31T21:03:37.532Z,2.73
2018-03-31T21:05:40.371Z,4.70
2018-03-31T21:07:43.253Z,2.90
2018-03-31T21:09:46.093Z,2.10
2018-03-31T21:11:48.210Z,2.60
2018-03-31T21:13:50.305Z,6.73
2018-03-31T21:15:52.405Z,3.97
2018-03-31T21:17:54.479Z,4.83
2018-03-31T21:19:57.319Z,3.57
2018-03-31T21:21:59.433Z,4.70
2018-03-31T21:24:02.335Z,3.60
2018-03-31T21:26:04.411Z,5.30
2018-03-31T21:28:06.511Z,4.90
2018-03-31T21:30:08.580Z,3.07
2018-03-31T21:32:11.442Z,4.70
2018-03-31T21:34:13.522Z,3.93
2018-03-31T21:36:16.367Z,4.60
2018-03-31T21:38:18.469Z,3.47
2018-03-31T21:40:20.557Z,3.30
2018-03-31T21:42:22.626Z,3.57
2018-03-31T21:44:24.719Z,3.67
2018-03-31T21:46:26.779Z,3.53
2018-03-31T21:48:28.961Z,4.00
2018-03-31T21:50:31.840Z,4.20
2018-03-31T21:52:33.896Z,7.30
2018-03-31T21:54:35.981Z,7.53
2018-03-31T21:56:38.872Z,3.73
2018-03-31T21:58:40.963Z,3.87
2018-03-31T22:00:43.084Z,4.67
2018-03-31T22:02:45.206Z,5.47
2018-03-31T22:04:47.307Z,4.50
2018-03-31T22:06:49.381Z,4.43
2018-03-31T22:08:52.235Z,6.73
2018-03-31T22:10:54.369Z,5.37
2018-03-31T22:13:02.185Z,4.20
2018-03-31T22:15:09.902Z,5.00
2018-03-31T22:17:11.971Z,5.10
2018-03-31T22:19:14.039Z,4.77
2018-03-31T22:21:16.897Z,5.63
2018-03-31T22:23:18.969Z,5.20
2018-03-31T22:25:21.079Z,4.23
2018-03-31T22:27:23.168Z,5.57
2018-03-31T22:29:25.239Z,4.07
2018-03-31T22:31:27.293Z,4.00
2018-03-31T22:33:29.384Z,5.00
2018-03-31T22:35:31.471Z,3.90
2018-03-31T22:37:34.373Z,4.13
2018-03-31T22:39:36.462Z,4.13
2018-03-31T22:41:38.549Z,6.47
2018-03-31T22:43:41.368Z,4.33
2018-03-31T22:45:43.430Z,6.77
2018-03-31T22:47:45.517Z,5.30
2018-03-31T22:49:47.609Z,8.87
2018-03-31T22:51:49.672Z,4.90
2018-03-31T22:53:51.753Z,6.17
2018-03-31T22:55:54.625Z,4.83
2018-03-31T22:57:57.066Z,6.80
2018-03-31T22:59:59.285Z,4.87
2018-03-31T23:02:01.350Z,6.63
2018-03-31T23:04:03.469Z,10.53
2018-03-31T23:06:06.310Z,5.47
2018-03-31T23:08:08.415Z,7.77
2018-03-31T23:10:11.294Z,6.67
2018-03-31T23:12:13.371Z,10.57
2018-03-31T23:14:16.239Z,11.70
2018-03-31T23:16:18.318Z,10.73
2018-03-31T23:18:21.155Z,8.43
2018-03-31T23:20:23.248Z,9.50
2018-03-31T23:22:25.334Z,9.63
2018-03-31T23:24:28.209Z,16.13
2018-03-31T23:26:31.106Z,11.23
2018-03-31T23:28:33.167Z,11.13
2018-03-31T23:30:35.260Z,18.50
2018-03-31T23:32:37.351Z,14.47
2018-03-31T23:34:39.414Z,10.73
2018-03-31T23:36:41.576Z,6.17
2018-03-31T23:38:43.650Z,6.60
2018-03-31T23:40:45.721Z,7.33
2018-03-31T23:42:48.570Z,4.87
2018-03-31T23:44:50.681Z,6.37
2018-03-31T23:46:52.970Z,5.47
2018-03-31T23:48:55.370Z,4.43
2018-03-31T23:50:57.502Z,6.03
2018-03-31T23:52:59.601Z,6.00
2018-03-31T23:55:01.685Z,5.47
2018-03-31T23:57:03.808Z,4.20
2018-03-31T23:59:05.909Z,5.90
